sensor_id;sensor_type;location;lat;lon;timestamp;pressure;altitude;pressure_sealevel;temperature;humidity
77325;BME280;66387;53.440;10.390;2022-12-28T00:02:02;100972.53;;;4.62;82.49
77325;BME280;66387;53.440;10.390;2022-12-28T00:04:28;100961.34;;;4.60;82.30
77325;BME280;66387;53.440;10.390;2022-12-28T00:06:53;100960.56;;;4.62;82.69
77325;BME280;66387;53.440;10.390;2022-12-28T00:09:18;100956.38;;;4.69;82.03
77325;BME280;66387;53.440;10.390;2022-12-28T00:11:44;100947.75;;;4.67;81.34
77325;BME280;66387;53.440;10.390;2022-12-28T00:14:09;100946.06;;;4.67;82.09
77325;BME280;66387;53.440;10.390;2022-12-28T00:16:36;100958.16;;;4.74;80.89
77325;BME280;66387;53.440;10.390;2022-12-28T00:19:05;100948.78;;;4.76;81.31
77325;BME280;66387;53.440;10.390;2022-12-28T00:21:31;100937.63;;;4.76;80.94
77325;BME280;66387;53.440;10.390;2022-12-28T00:23:58;100946.25;;;4.81;79.99
77325;BME280;66387;53.440;10.390;2022-12-28T00:26:30;100920.50;;;4.78;79.99
77325;BME280;66387;53.440;10.390;2022-12-28T00:28:57;100920.50;;;4.78;80.31
77325;BME280;66387;53.440;10.390;2022-12-28T00:31:23;100923.09;;;4.79;80.49
77325;BME280;66387;53.440;10.390;2022-12-28T00:33:48;100918.84;;;4.80;79.32
77325;BME280;66387;53.440;10.390;2022-12-28T00:36:14;100911.94;;;4.79;79.86
77325;BME280;66387;53.440;10.390;2022-12-28T00:38:40;100910.25;;;4.81;79.79
77325;BME280;66387;53.440;10.390;2022-12-28T00:41:06;100899.13;;;4.82;79.71
77325;BME280;66387;53.440;10.390;2022-12-28T00:43:31;100894.09;;;4.88;79.40
77325;BME280;66387;53.440;10.390;2022-12-28T00:45:57;100887.22;;;4.87;79.50
77325;BME280;66387;53.440;10.390;2022-12-28T00:48:22;100890.53;;;4.81;79.74
77325;BME280;66387;53.440;10.390;2022-12-28T00:50:47;100874.31;;;4.84;78.99
77325;BME280;66387;53.440;10.390;2022-12-28T00:53:13;100874.31;;;4.84;79.36
77325;BME280;66387;53.440;10.390;2022-12-28T00:55:38;100867.47;;;4.84;79.41
77325;BME280;66387;53.440;10.390;2022-12-28T00:58:04;100865.69;;;4.80;78.85
77325;BME280;66387;53.440;10.390;2022-12-28T01:00:30;100867.44;;;4.83;79.12
77325;BME280;66387;53.440;10.390;2022-12-28T01:02:56;100865.69;;;4.82;78.45
77325;BME280;66387;53.440;10.390;2022-12-28T01:05:22;100864.81;;;4.81;78.96
77325;BME280;66387;53.440;10.390;2022-12-28T01:07:47;100855.41;;;4.82;79.01
77325;BME280;66387;53.440;10.390;2022-12-28T01:10:13;100857.94;;;4.79;79.09
77325;BME280;66387;53.440;10.390;2022-12-28T01:12:38;100857.91;;;4.77;78.39
77325;BME280;66387;53.440;10.390;2022-12-28T01:15:05;100853.66;;;4.81;78.15
77325;BME280;66387;53.440;10.390;2022-12-28T01:17:31;100851.88;;;4.75;78.76
77325;BME280;66387;53.440;10.390;2022-12-28T01:19:56;100846.81;;;4.80;78.14
77325;BME280;66387;53.440;10.390;2022-12-28T01:22:22;100842.47;;;4.77;77.98
77325;BME280;66387;53.440;10.390;2022-12-28T01:24:47;100834.72;;;4.73;78.31
77325;BME280;66387;53.440;10.390;2022-12-28T01:27:12;100821.84;;;4.71;78.03
77325;BME280;66387;53.440;10.390;2022-12-28T01:29:38;100822.63;;;4.66;78.67
77325;BME280;66387;53.440;10.390;2022-12-28T01:32:03;100812.31;;;4.64;78.25
77325;BME280;66387;53.440;10.390;2022-12-28T01:34:29;100801.19;;;4.65;77.38
77325;BME280;66387;53.440;10.390;2022-12-28T01:36:54;100802.94;;;4.66;77.82
77325;BME280;66387;53.440;10.390;2022-12-28T01:39:19;100793.47;;;4.65;77.11
77325;BME280;66387;53.440;10.390;2022-12-28T01:41:45;100786.50;;;4.57;77.65
77325;BME280;66387;53.440;10.390;2022-12-28T01:46:39;100779.69;;;4.59;77.48
77325;BME280;66387;53.440;10.390;2022-12-28T01:49:18;100769.41;;;4.59;76.71
77325;BME280;66387;53.440;10.390;2022-12-28T01:52:08;100771.09;;;4.58;76.52
77325;BME280;66387;53.440;10.390;2022-12-28T01:55:07;100760.78;;;4.57;76.33
77325;BME280;66387;53.440;10.390;2022-12-28T01:57:40;100759.03;;;4.56;76.22
77325;BME280;66387;53.440;10.390;2022-12-28T02:00:09;100744.50;;;4.56;76.35
77325;BME280;66387;53.440;10.390;2022-12-28T02:02:35;100735.91;;;4.54;76.54
77325;BME280;66387;53.440;10.390;2022-12-28T02:05:01;100725.69;;;4.59;75.61
77325;BME280;66387;53.440;10.390;2022-12-28T02:07:54;100724.03;;;4.62;75.48
77325;BME280;66387;53.440;10.390;2022-12-28T02:10:23;100717.97;;;4.60;75.72
77325;BME280;66387;53.440;10.390;2022-12-28T02:12:48;100709.38;;;4.57;76.54
77325;BME280;66387;53.440;10.390;2022-12-28T02:15:13;100705.97;;;4.59;76.36
77325;BME280;66387;53.440;10.390;2022-12-28T02:17:39;100703.38;;;4.58;76.21
77325;BME280;66387;53.440;10.390;2022-12-28T02:20:05;100693.94;;;4.55;76.11
77325;BME280;66387;53.440;10.390;2022-12-28T02:22:58;100702.44;;;4.53;76.82
77325;BME280;66387;53.440;10.390;2022-12-28T02:31:06;100700.66;;;4.45;77.11
77325;BME280;66387;53.440;10.390;2022-12-28T02:36:33;100699.69;;;4.37;77.43
77325;BME280;66387;53.440;10.390;2022-12-28T02:39:07;100692.81;;;4.33;77.31
77325;BME280;66387;53.440;10.390;2022-12-28T02:41:33;100706.56;;;4.37;77.82
77325;BME280;66387;53.440;10.390;2022-12-28T02:43:59;100688.56;;;4.37;77.28
77325;BME280;66387;53.440;10.390;2022-12-28T02:46:29;100705.66;;;4.33;77.94
77325;BME280;66387;53.440;10.390;2022-12-28T02:49:17;100685.09;;;4.33;77.75
77325;BME280;66387;53.440;10.390;2022-12-28T02:58:17;100668.00;;;4.37;76.74
77325;BME280;66387;53.440;10.390;2022-12-28T03:06:15;100662.88;;;4.37;77.02
77325;BME280;66387;53.440;10.390;2022-12-28T03:09:18;100649.94;;;4.34;77.20
77325;BME280;66387;53.440;10.390;2022-12-28T03:11:56;100662.84;;;4.35;77.10
77325;BME280;66387;53.440;10.390;2022-12-28T03:14:27;100626.81;;;4.32;76.73
77325;BME280;66387;53.440;10.390;2022-12-28T03:16:57;100627.66;;;4.31;77.49
77325;BME280;66387;53.440;10.390;2022-12-28T03:19:48;100626.81;;;4.32;76.80
77325;BME280;66387;53.440;10.390;2022-12-28T03:22:37;100640.50;;;4.31;77.46
77325;BME280;66387;53.440;10.390;2022-12-28T03:25:25;100621.69;;;4.32;77.05
77325;BME280;66387;53.440;10.390;2022-12-28T03:28:12;100618.22;;;4.29;77.63
77325;BME280;66387;53.440;10.390;2022-12-28T03:30:59;100621.66;;;4.29;77.92
77325;BME280;66387;53.440;10.390;2022-12-28T03:33:35;100608.75;;;4.26;78.00
77325;BME280;66387;53.440;10.390;2022-12-28T03:36:14;100603.59;;;4.25;77.95
77325;BME280;66387;53.440;10.390;2022-12-28T03:38:53;100593.28;;;4.23;78.36
77325;BME280;66387;53.440;10.390;2022-12-28T03:41:34;100588.16;;;4.22;78.11
77325;BME280;66387;53.440;10.390;2022-12-28T03:44:08;100582.16;;;4.21;78.09
77325;BME280;66387;53.440;10.390;2022-12-28T03:46:47;100598.44;;;4.23;77.86
77325;BME280;66387;53.440;10.390;2022-12-28T03:49:13;100575.31;;;4.23;78.73
77325;BME280;66387;53.440;10.390;2022-12-28T03:51:39;100560.72;;;4.21;78.84
77325;BME280;66387;53.440;10.390;2022-12-28T03:54:05;100570.19;;;4.26;78.71
77325;BME280;66387;53.440;10.390;2022-12-28T03:56:31;100558.13;;;4.19;79.60
77325;BME280;66387;53.440;10.390;2022-12-28T03:58:56;100561.53;;;4.15;80.54
77325;BME280;66387;53.440;10.390;2022-12-28T04:01:22;100545.13;;;4.06;80.97
77325;BME280;66387;53.440;10.390;2022-12-28T04:03:48;100545.09;;;4.03;81.39
77325;BME280;66387;53.440;10.390;2022-12-28T04:06:15;100529.69;;;4.03;81.38
77325;BME280;66387;53.440;10.390;2022-12-28T04:08:42;100536.47;;;3.96;82.59
77325;BME280;66387;53.440;10.390;2022-12-28T04:11:08;100528.63;;;3.87;83.17
77325;BME280;66387;53.440;10.390;2022-12-28T04:13:34;100520.09;;;3.88;84.04
77325;BME280;66387;53.440;10.390;2022-12-28T04:16:04;100517.50;;;3.85;84.61
77325;BME280;66387;53.440;10.390;2022-12-28T04:18:31;100507.19;;;3.82;84.47
77325;BME280;66387;53.440;10.390;2022-12-28T04:20:57;100505.44;;;3.79;84.44
77325;BME280;66387;53.440;10.390;2022-12-28T04:23:23;100502.03;;;3.80;84.56
77325;BME280;66387;53.440;10.390;2022-12-28T04:28:26;100495.16;;;3.78;84.76
77325;BME280;66387;53.440;10.390;2022-12-28T04:30:52;100487.41;;;3.75;85.11
77325;BME280;66387;53.440;10.390;2022-12-28T04:33:17;100493.34;;;3.71;85.74
77325;BME280;66387;53.440;10.390;2022-12-28T04:35:42;100479.66;;;3.72;85.72
77325;BME280;66387;53.440;10.390;2022-12-28T04:38:08;100470.25;;;3.71;85.85
77325;BME280;66387;53.440;10.390;2022-12-28T04:40:33;100460.78;;;3.67;86.48
77325;BME280;66387;53.440;10.390;2022-12-28T04:42:58;100454.75;;;3.65;86.18
77325;BME280;66387;53.440;10.390;2022-12-28T04:45:23;100444.53;;;3.66;86.10
77325;BME280;66387;53.440;10.390;2022-12-28T04:47:49;100441.06;;;3.63;87.19
77325;BME280;66387;53.440;10.390;2022-12-28T04:50:14;100429.13;;;3.66;86.67
77325;BME280;66387;53.440;10.390;2022-12-28T04:52:39;100415.38;;;3.63;87.05
77325;BME280;66387;53.440;10.390;2022-12-28T04:55:05;100421.44;;;3.69;86.60
77325;BME280;66387;53.440;10.390;2022-12-28T04:57:30;100426.63;;;3.71;86.26
77325;BME280;66387;53.440;10.390;2022-12-28T04:59:55;100405.16;;;3.66;86.85
77325;BME280;66387;53.440;10.390;2022-12-28T05:02:20;100412.03;;;3.67;86.91
77325;BME280;66387;53.440;10.390;2022-12-28T05:04:46;100406.00;;;3.65;87.42
77325;BME280;66387;53.440;10.390;2022-12-28T05:07:11;100400.03;;;3.69;87.19
77325;BME280;66387;53.440;10.390;2022-12-28T05:09:36;100383.78;;;3.67;87.36
77325;BME280;66387;53.440;10.390;2022-12-28T05:12:02;100389.75;;;3.66;87.66
77325;BME280;66387;53.440;10.390;2022-12-28T05:14:27;100386.34;;;3.67;87.27
77325;BME280;66387;53.440;10.390;2022-12-28T05:16:52;100392.38;;;3.72;87.98
77325;BME280;66387;53.440;10.390;2022-12-28T05:19:17;100385.50;;;3.69;87.04
77325;BME280;66387;53.440;10.390;2022-12-28T05:21:43;100376.09;;;3.70;87.37
77325;BME280;66387;53.440;10.390;2022-12-28T05:24:08;100376.16;;;3.74;87.21
77325;BME280;66387;53.440;10.390;2022-12-28T05:26:33;100369.34;;;3.78;87.45
77325;BME280;66387;53.440;10.390;2022-12-28T05:28:59;100359.94;;;3.78;87.53
77325;BME280;66387;53.440;10.390;2022-12-28T05:31:25;100347.94;;;3.77;87.47
77325;BME280;66387;53.440;10.390;2022-12-28T05:33:51;100350.56;;;3.82;87.22
77325;BME280;66387;53.440;10.390;2022-12-28T05:36:19;100336.00;;;3.81;87.77
77325;BME280;66387;53.440;10.390;2022-12-28T05:38:46;100341.97;;;3.80;88.39
77325;BME280;66387;53.440;10.390;2022-12-28T05:41:28;100335.13;;;3.79;88.43
77325;BME280;66387;53.440;10.390;2022-12-28T05:43:55;100319.69;;;3.74;89.11
77325;BME280;66387;53.440;10.390;2022-12-28T05:46:26;100338.53;;;3.75;89.50
77325;BME280;66387;53.440;10.390;2022-12-28T05:48:52;100343.69;;;3.78;89.20
77325;BME280;66387;53.440;10.390;2022-12-28T05:51:20;100324.03;;;3.83;89.24
77325;BME280;66387;53.440;10.390;2022-12-28T05:53:46;100329.19;;;3.84;89.32
77325;BME280;66387;53.440;10.390;2022-12-28T05:56:14;100324.91;;;3.86;89.28
77325;BME280;66387;53.440;10.390;2022-12-28T05:58:42;100316.31;;;3.83;89.60
77325;BME280;66387;53.440;10.390;2022-12-28T06:01:11;100319.75;;;3.82;89.62
77325;BME280;66387;53.440;10.390;2022-12-28T06:03:37;100318.06;;;3.84;90.32
77325;BME280;66387;53.440;10.390;2022-12-28T06:06:09;100311.25;;;3.86;90.53
77325;BME280;66387;53.440;10.390;2022-12-28T06:08:35;100316.31;;;3.83;91.21
77325;BME280;66387;53.440;10.390;2022-12-28T06:11:03;100306.13;;;3.86;90.84
77325;BME280;66387;53.440;10.390;2022-12-28T06:13:30;100301.78;;;3.83;90.98
77325;BME280;66387;53.440;10.390;2022-12-28T06:15:56;100300.13;;;3.85;91.42
77325;BME280;66387;53.440;10.390;2022-12-28T06:18:21;100304.34;;;3.82;91.32
77325;BME280;66387;53.440;10.390;2022-12-28T06:20:47;100288.09;;;3.81;91.92
77325;BME280;66387;53.440;10.390;2022-12-28T06:23:12;100285.56;;;3.86;91.10
77325;BME280;66387;53.440;10.390;2022-12-28T06:25:37;100276.97;;;3.84;91.76
77325;BME280;66387;53.440;10.390;2022-12-28T06:28:03;100279.53;;;3.84;91.92
77325;BME280;66387;53.440;10.390;2022-12-28T06:30:28;100267.59;;;3.87;91.54
77325;BME280;66387;53.440;10.390;2022-12-28T06:32:55;100262.47;;;3.89;91.48
77325;BME280;66387;53.440;10.390;2022-12-28T06:35:20;100267.63;;;3.89;91.54
77325;BME280;66387;53.440;10.390;2022-12-28T06:37:46;100245.38;;;3.91;92.33
77325;BME280;66387;53.440;10.390;2022-12-28T06:40:11;100253.09;;;3.92;91.72
77325;BME280;66387;53.440;10.390;2022-12-28T06:42:37;100259.09;;;3.94;91.51
77325;BME280;66387;53.440;10.390;2022-12-28T06:45:02;100244.56;;;3.98;91.76
77325;BME280;66387;53.440;10.390;2022-12-28T06:47:27;100230.91;;;4.01;91.87
77325;BME280;66387;53.440;10.390;2022-12-28T06:49:53;100240.31;;;4.05;92.20
77325;BME280;66387;53.440;10.390;2022-12-28T06:52:18;100232.59;;;4.02;92.39
77325;BME280;66387;53.440;10.390;2022-12-28T06:54:44;100230.06;;;4.05;92.61
77325;BME280;66387;53.440;10.390;2022-12-28T06:57:09;100217.22;;;4.06;92.57
77325;BME280;66387;53.440;10.390;2022-12-28T06:59:34;100220.69;;;4.13;92.21
77325;BME280;66387;53.440;10.390;2022-12-28T07:01:59;100218.13;;;4.16;92.11
77325;BME280;66387;53.440;10.390;2022-12-28T07:04:24;100213.88;;;4.19;91.79
77325;BME280;66387;53.440;10.390;2022-12-28T07:06:50;100216.47;;;4.18;92.11
77325;BME280;66387;53.440;10.390;2022-12-28T07:09:15;100222.47;;;4.21;92.68
77325;BME280;66387;53.440;10.390;2022-12-28T07:11:41;100207.94;;;4.26;91.42
77325;BME280;66387;53.440;10.390;2022-12-28T07:14:07;100211.38;;;4.25;92.17
77325;BME280;66387;53.440;10.390;2022-12-28T07:16:32;100207.97;;;4.29;92.10
77325;BME280;66387;53.440;10.390;2022-12-28T07:18:58;100189.97;;;4.29;92.11
77325;BME280;66387;53.440;10.390;2022-12-28T07:21:26;100196.00;;;4.33;92.12
77325;BME280;66387;53.440;10.390;2022-12-28T07:23:53;100212.28;;;4.33;92.08
77325;BME280;66387;53.440;10.390;2022-12-28T07:26:21;100205.44;;;4.37;91.97
77325;BME280;66387;53.440;10.390;2022-12-28T07:28:48;100197.72;;;4.38;92.60
77325;BME280;66387;53.440;10.390;2022-12-28T07:31:22;100192.59;;;4.38;92.61
77325;BME280;66387;53.440;10.390;2022-12-28T07:33:49;100198.63;;;4.40;92.17
77325;BME280;66387;53.440;10.390;2022-12-28T07:36:17;100201.19;;;4.45;92.04
77325;BME280;66387;53.440;10.390;2022-12-28T07:38:43;100189.19;;;4.49;92.73
77325;BME280;66387;53.440;10.390;2022-12-28T07:41:10;100181.53;;;4.52;92.47
77325;BME280;66387;53.440;10.390;2022-12-28T07:43:36;100188.38;;;4.53;91.93
77325;BME280;66387;53.440;10.390;2022-12-28T07:46:13;100179.81;;;4.57;92.81
77325;BME280;66387;53.440;10.390;2022-12-28T07:48:39;100174.72;;;4.61;92.16
77325;BME280;66387;53.440;10.390;2022-12-28T07:51:14;100183.28;;;4.62;93.00
77325;BME280;66387;53.440;10.390;2022-12-28T07:53:42;100177.28;;;4.61;92.62
77325;BME280;66387;53.440;10.390;2022-12-28T07:56:08;100173.84;;;4.64;92.79
77325;BME280;66387;53.440;10.390;2022-12-28T07:58:33;100190.16;;;4.69;93.23
77325;BME280;66387;53.440;10.390;2022-12-28T08:01:26;100190.16;;;4.72;92.91
77325;BME280;66387;53.440;10.390;2022-12-28T08:03:53;100171.31;;;4.70;93.27
77325;BME280;66387;53.440;10.390;2022-12-28T08:06:20;100176.47;;;4.70;93.90
77325;BME280;66387;53.440;10.390;2022-12-28T08:08:48;100219.31;;;4.74;93.66
77325;BME280;66387;53.440;10.390;2022-12-28T08:11:16;100183.34;;;4.77;93.85
77325;BME280;66387;53.440;10.390;2022-12-28T08:13:45;100185.91;;;4.75;94.09
77325;BME280;66387;53.440;10.390;2022-12-28T08:16:12;100167.03;;;4.78;94.00
77325;BME280;66387;53.440;10.390;2022-12-28T08:18:38;100176.53;;;4.88;93.59
77325;BME280;66387;53.440;10.390;2022-12-28T08:21:07;100165.38;;;4.90;93.63
77325;BME280;66387;53.440;10.390;2022-12-28T08:23:32;100172.25;;;4.91;93.17
77325;BME280;66387;53.440;10.390;2022-12-28T08:26:11;100161.09;;;4.97;93.95
77325;BME280;66387;53.440;10.390;2022-12-28T08:28:37;100160.25;;;5.01;93.25
77325;BME280;66387;53.440;10.390;2022-12-28T08:31:12;100173.97;;;4.99;93.96
77325;BME280;66387;53.440;10.390;2022-12-28T08:33:38;100160.25;;;5.03;93.22
77325;BME280;66387;53.440;10.390;2022-12-28T08:36:04;100167.97;;;5.07;94.09
77325;BME280;66387;53.440;10.390;2022-12-28T08:38:30;100155.97;;;5.06;93.55
77325;BME280;66387;53.440;10.390;2022-12-28T08:40:57;100164.56;;;5.08;94.43
77325;BME280;66387;53.440;10.390;2022-12-28T08:43:23;100156.84;;;5.16;94.30
77325;BME280;66387;53.440;10.390;2022-12-28T08:46:02;100155.97;;;5.12;94.51
77325;BME280;66387;53.440;10.390;2022-12-28T08:48:28;100147.41;;;5.16;94.47
77325;BME280;66387;53.440;10.390;2022-12-28T08:50:54;100154.28;;;5.19;94.42
77325;BME280;66387;53.440;10.390;2022-12-28T08:53:20;100162.00;;;5.17;95.02
77325;BME280;66387;53.440;10.390;2022-12-28T08:55:49;100153.41;;;5.23;94.58
77325;BME280;66387;53.440;10.390;2022-12-28T08:58:15;100144.88;;;5.31;94.99
77325;BME280;66387;53.440;10.390;2022-12-28T09:00:40;100158.56;;;5.33;94.73
77325;BME280;66387;53.440;10.390;2022-12-28T09:03:05;100142.28;;;5.40;94.83
77325;BME280;66387;53.440;10.390;2022-12-28T09:05:30;100144.00;;;5.46;94.23
77325;BME280;66387;53.440;10.390;2022-12-28T09:07:56;100162.03;;;5.49;94.82
77325;BME280;66387;53.440;10.390;2022-12-28T09:10:21;100153.44;;;5.56;94.17
77325;BME280;66387;53.440;10.390;2022-12-28T09:12:46;100170.59;;;5.62;94.05
77325;BME280;66387;53.440;10.390;2022-12-28T09:15:11;100164.59;;;5.72;93.98
77325;BME280;66387;53.440;10.390;2022-12-28T09:17:37;100158.56;;;5.76;94.38
77325;BME280;66387;53.440;10.390;2022-12-28T09:20:02;100174.88;;;5.85;93.84
77325;BME280;66387;53.440;10.390;2022-12-28T09:22:29;100156.00;;;5.93;93.63
77325;BME280;66387;53.440;10.390;2022-12-28T09:24:55;100169.75;;;6.01;93.40
77325;BME280;66387;53.440;10.390;2022-12-28T09:27:20;100152.53;;;6.10;93.26
77325;BME280;66387;53.440;10.390;2022-12-28T09:29:46;100163.69;;;6.15;92.82
77325;BME280;66387;53.440;10.390;2022-12-28T09:32:11;100156.81;;;6.22;93.06
77325;BME280;66387;53.440;10.390;2022-12-28T09:34:36;100143.88;;;6.28;92.76
77325;BME280;66387;53.440;10.390;2022-12-28T09:37:02;100155.06;;;6.27;92.12
77325;BME280;66387;53.440;10.390;2022-12-28T09:39:27;100159.31;;;6.34;92.46
77325;BME280;66387;53.440;10.390;2022-12-28T09:47:11;100157.56;;;6.50;91.72
77325;BME280;66387;53.440;10.390;2022-12-28T09:53:02;100148.94;;;6.58;91.88
77325;BME280;66387;53.440;10.390;2022-12-28T09:55:31;100145.50;;;6.59;91.53
77325;BME280;66387;53.440;10.390;2022-12-28T09:57:58;100146.31;;;6.60;92.30
77325;BME280;66387;53.440;10.390;2022-12-28T10:00:47;100144.59;;;6.63;91.76
77325;BME280;66387;53.440;10.390;2022-12-28T10:03:24;100149.69;;;6.75;91.35
77325;BME280;66387;53.440;10.390;2022-12-28T10:05:52;100151.41;;;6.81;91.46
77325;BME280;66387;53.440;10.390;2022-12-28T10:08:20;100141.09;;;6.79;91.08
77325;BME280;66387;53.440;10.390;2022-12-28T10:10:47;100151.41;;;6.79;91.47
77325;BME280;66387;53.440;10.390;2022-12-28T10:13:17;100144.50;;;6.83;91.40
77325;BME280;66387;53.440;10.390;2022-12-28T10:15:44;100131.59;;;6.83;91.59
77325;BME280;66387;53.440;10.390;2022-12-28T10:18:12;100125.63;;;6.81;91.50
77325;BME280;66387;53.440;10.390;2022-12-28T10:20:40;100137.66;;;6.79;91.69
77325;BME280;66387;53.440;10.390;2022-12-28T10:23:11;100129.94;;;6.76;91.93
77325;BME280;66387;53.440;10.390;2022-12-28T10:25:38;100135.00;;;6.91;91.53
77325;BME280;66387;53.440;10.390;2022-12-28T10:28:06;100132.41;;;6.89;91.14
77325;BME280;66387;53.440;10.390;2022-12-28T10:30:43;100146.22;;;6.87;91.47
77325;BME280;66387;53.440;10.390;2022-12-28T10:33:15;100145.31;;;6.91;91.75
77325;BME280;66387;53.440;10.390;2022-12-28T10:35:42;100145.31;;;6.91;92.19
77325;BME280;66387;53.440;10.390;2022-12-28T10:38:22;100138.41;;;6.96;91.54
77325;BME280;66387;53.440;10.390;2022-12-28T10:40:57;100141.03;;;6.90;91.87
77325;BME280;66387;53.440;10.390;2022-12-28T10:43:26;100142.69;;;7.00;91.64
77325;BME280;66387;53.440;10.390;2022-12-28T10:45:53;100129.78;;;6.97;91.65
77325;BME280;66387;53.440;10.390;2022-12-28T10:48:37;100135.78;;;7.02;91.71
77325;BME280;66387;53.440;10.390;2022-12-28T10:51:12;100131.44;;;7.07;90.44
77325;BME280;66387;53.440;10.390;2022-12-28T10:56:19;100121.09;;;7.12;90.43
77325;BME280;66387;53.440;10.390;2022-12-28T10:58:47;100126.22;;;7.16;90.54
77325;BME280;66387;53.440;10.390;2022-12-28T11:03:59;100139.03;;;7.31;90.29
77325;BME280;66387;53.440;10.390;2022-12-28T11:06:26;100126.97;;;7.33;89.41
77325;BME280;66387;53.440;10.390;2022-12-28T11:09:13;100132.97;;;7.34;90.27
77325;BME280;66387;53.440;10.390;2022-12-28T11:11:41;100138.16;;;7.35;89.44
77325;BME280;66387;53.440;10.390;2022-12-28T11:16:36;100128.63;;;7.40;89.38
77325;BME280;66387;53.440;10.390;2022-12-28T11:19:02;100118.28;;;7.40;89.91
77325;BME280;66387;53.440;10.390;2022-12-28T11:21:28;100127.75;;;7.42;89.12
77325;BME280;66387;53.440;10.390;2022-12-28T11:23:54;100125.13;;;7.48;88.96
77325;BME280;66387;53.440;10.390;2022-12-28T11:26:20;100115.69;;;7.47;89.37
77325;BME280;66387;53.440;10.390;2022-12-28T11:28:48;100123.47;;;7.42;89.95
77325;BME280;66387;53.440;10.390;2022-12-28T11:31:25;100117.44;;;7.40;89.96
77325;BME280;66387;53.440;10.390;2022-12-28T11:33:55;100125.19;;;7.40;90.03
77325;BME280;66387;53.440;10.390;2022-12-28T11:36:26;100131.16;;;7.44;89.71
77325;BME280;66387;53.440;10.390;2022-12-28T11:38:54;100126.91;;;7.41;89.95
77325;BME280;66387;53.440;10.390;2022-12-28T11:43:58;100121.75;;;7.38;91.05
77325;BME280;66387;53.440;10.390;2022-12-28T11:49:04;100116.66;;;7.32;91.67
77325;BME280;66387;53.440;10.390;2022-12-28T11:51:46;100111.50;;;7.30;92.05
77325;BME280;66387;53.440;10.390;2022-12-28T11:54:49;100111.50;;;7.29;91.97
77325;BME280;66387;53.440;10.390;2022-12-28T12:03:02;100111.50;;;7.30;92.17
77325;BME280;66387;53.440;10.390;2022-12-28T12:10:39;100105.50;;;7.28;92.84
77325;BME280;66387;53.440;10.390;2022-12-28T12:13:42;100096.00;;;7.30;92.17
77325;BME280;66387;53.440;10.390;2022-12-28T12:16:25;100102.84;;;7.33;92.74
77325;BME280;66387;53.440;10.390;2022-12-28T12:18:55;100086.44;;;7.40;91.92
77325;BME280;66387;53.440;10.390;2022-12-28T12:21:28;100097.66;;;7.37;92.15
77325;BME280;66387;53.440;10.390;2022-12-28T12:23:59;100096.75;;;7.46;92.02
77325;BME280;66387;53.440;10.390;2022-12-28T12:26:34;100091.53;;;7.49;91.76
77325;BME280;66387;53.440;10.390;2022-12-28T12:29:05;100087.16;;;7.56;91.32
77325;BME280;66387;53.440;10.390;2022-12-28T12:31:40;100086.31;;;7.57;91.06
77325;BME280;66387;53.440;10.390;2022-12-28T12:34:20;100083.63;;;7.67;91.03
77325;BME280;66387;53.440;10.390;2022-12-28T12:39:41;100083.63;;;7.66;90.88
77325;BME280;66387;53.440;10.390;2022-12-28T12:44:56;100085.34;;;7.68;90.79
77325;BME280;66387;53.440;10.390;2022-12-28T12:47:55;100074.13;;;7.71;90.10
77325;BME280;66387;53.440;10.390;2022-12-28T13:01:45;100075.00;;;7.68;91.03
77325;BME280;66387;53.440;10.390;2022-12-28T13:04:17;100083.59;;;7.69;91.64
77325;BME280;66387;53.440;10.390;2022-12-28T13:06:44;100074.16;;;7.68;91.09
77325;BME280;66387;53.440;10.390;2022-12-28T13:09:15;100083.63;;;7.66;91.76
77325;BME280;66387;53.440;10.390;2022-12-28T13:11:41;100090.50;;;7.65;91.86
77325;BME280;66387;53.440;10.390;2022-12-28T13:14:18;100083.66;;;7.64;92.08
77325;BME280;66387;53.440;10.390;2022-12-28T13:16:50;100078.50;;;7.63;92.09
77325;BME280;66387;53.440;10.390;2022-12-28T13:19:25;100075.91;;;7.63;91.70
77325;BME280;66387;53.440;10.390;2022-12-28T13:21:52;100075.00;;;7.68;91.54
77325;BME280;66387;53.440;10.390;2022-12-28T13:26:44;100068.13;;;7.67;91.70
77325;BME280;66387;53.440;10.390;2022-12-28T13:29:09;100076.69;;;7.69;91.40
77325;BME280;66387;53.440;10.390;2022-12-28T13:31:38;100076.69;;;7.69;91.46
77325;BME280;66387;53.440;10.390;2022-12-28T13:34:27;100076.69;;;7.69;91.77
77325;BME280;66387;53.440;10.390;2022-12-28T13:37:01;100071.50;;;7.74;91.37
77325;BME280;66387;53.440;10.390;2022-12-28T13:39:28;100074.94;;;7.74;91.44
77325;BME280;66387;53.440;10.390;2022-12-28T13:41:56;100075.00;;;7.68;91.38
77325;BME280;66387;53.440;10.390;2022-12-28T13:47:12;100088.75;;;7.70;92.12
77325;BME280;66387;53.440;10.390;2022-12-28T13:50:11;100071.53;;;7.71;91.89
77325;BME280;66387;53.440;10.390;2022-12-28T13:52:42;100073.25;;;7.69;91.87
77325;BME280;66387;53.440;10.390;2022-12-28T13:55:15;100069.84;;;7.65;92.47
77325;BME280;66387;53.440;10.390;2022-12-28T13:57:46;100060.38;;;7.66;92.44
77325;BME280;66387;53.440;10.390;2022-12-28T14:00:19;100073.28;;;7.66;92.38
77325;BME280;66387;53.440;10.390;2022-12-28T14:02:46;100069.00;;;7.65;92.48
77325;BME280;66387;53.440;10.390;2022-12-28T14:05:20;100070.75;;;7.63;92.40
77325;BME280;66387;53.440;10.390;2022-12-28T14:07:47;100065.56;;;7.63;92.34
77325;BME280;66387;53.440;10.390;2022-12-28T14:10:14;100075.91;;;7.64;92.19
77325;BME280;66387;53.440;10.390;2022-12-28T14:12:39;100071.53;;;7.69;91.68
77325;BME280;66387;53.440;10.390;2022-12-28T14:15:06;100054.28;;;7.73;90.84
77325;BME280;66387;53.440;10.390;2022-12-28T14:17:31;100063.69;;;7.78;90.66
77325;BME280;66387;53.440;10.390;2022-12-28T14:19:57;100074.03;;;7.77;90.98
77325;BME280;66387;53.440;10.390;2022-12-28T14:22:34;100066.31;;;7.74;90.71